Time;durP1;ratioP1;P1;durP2;ratioP2;P2;SDS_P1;SDS_P2;PMS_P1;PMS_P2;Temp;Humidity;BMP_temperature;BMP_pressure;BME280_temperature;BME280_humidity;BME280_pressure;Samples;Min_cycle;Max_cycle;Signal;HPM_P1;HPM_P2
2021/12/08 00:00:17;;;;;;;4.00;2.05;;;23.00;56.70;;;;;;4988545;28;20328;-51
2021/12/08 00:02:48;;;;;;;3.47;2.10;;;23.00;56.70;;;;;;4988951;28;20284;-50
2021/12/08 00:05:20;;;;;;;2.33;1.88;;;23.00;56.70;;;;;;4990098;28;20610;-48
2021/12/08 00:07:53;;;;;;;2.15;1.70;;;23.00;56.60;;;;;;4989568;28;20292;-47
2021/12/08 00:10:52;;;;;;;3.25;1.55;;;23.10;56.70;;;;;;4988425;28;20665;-42
2021/12/08 00:13:21;;;;;;;3.67;1.83;;;23.10;56.60;;;;;;4989393;28;20193;-43
2021/12/08 00:15:55;;;;;;;3.30;2.13;;;23.10;56.50;;;;;;4988739;28;20629;-52
2021/12/08 00:18:27;;;;;;;3.83;2.05;;;23.20;56.50;;;;;;4988334;28;20315;-43
2021/12/08 00:20:59;;;;;;;3.22;1.60;;;23.20;56.50;;;;;;4988448;28;20288;-41
2021/12/08 00:23:34;;;;;;;2.85;1.85;;;23.20;56.40;;;;;;4988546;28;20201;-44
2021/12/08 00:26:05;;;;;;;2.25;1.48;;;23.30;56.40;;;;;;4989428;28;20235;-43
2021/12/08 00:28:36;;;;;;;5.50;1.92;;;23.30;56.40;;;;;;4989058;28;20194;-42
2021/12/08 00:31:07;;;;;;;3.97;1.58;;;23.30;56.30;;;;;;4989739;28;21322;-43
2021/12/08 00:33:39;;;;;;;2.33;1.80;;;23.30;56.20;;;;;;4987379;28;20208;-46
2021/12/08 00:36:14;;;;;;;3.65;1.67;;;23.30;56.10;;;;;;4987480;28;20304;-42
2021/12/08 00:38:46;;;;;;;5.40;2.00;;;23.40;56.00;;;;;;4988626;28;20584;-52
2021/12/08 00:41:17;;;;;;;2.63;1.67;;;23.40;56.00;;;;;;4988084;28;20276;-44
2021/12/08 00:43:47;;;;;;;4.45;1.98;;;23.40;55.90;;;;;;4988700;28;20638;-55
2021/12/08 00:46:18;;;;;;;2.63;1.73;;;23.40;56.10;;;;;;4988975;28;20300;-42
2021/12/08 00:48:50;;;;;;;2.38;1.60;;;23.40;56.20;;;;;;4987988;28;20733;-44
2021/12/08 00:51:20;;;;;;;2.35;1.70;;;23.50;56.30;;;;;;4987676;28;20205;-45
2021/12/08 00:53:53;;;;;;;3.03;1.73;;;23.50;56.20;;;;;;4986756;28;20300;-43
2021/12/08 00:56:23;;;;;;;4.05;2.17;;;23.50;56.20;;;;;;4987442;28;20735;-43
2021/12/08 00:58:54;;;;;;;3.33;1.63;;;23.50;56.10;;;;;;4987257;28;20307;-47
2021/12/08 01:01:24;;;;;;;2.85;1.55;;;23.60;56.10;;;;;;4988373;28;20288;-49
2021/12/08 01:03:55;;;;;;;3.33;1.67;;;23.60;56.00;;;;;;4988064;28;20217;-50
2021/12/08 01:06:26;;;;;;;3.55;1.88;;;23.60;56.00;;;;;;4987912;28;20304;-53
2021/12/08 01:08:58;;;;;;;2.60;1.88;;;23.70;56.00;;;;;;4986927;28;20289;-45
2021/12/08 01:11:29;;;;;;;2.05;1.83;;;23.70;55.90;;;;;;4987409;28;20216;-49
2021/12/08 01:13:59;;;;;;;2.85;1.77;;;23.70;55.80;;;;;;4987159;28;20292;-52
2021/12/08 01:16:30;;;;;;;3.13;1.90;;;23.70;55.80;;;;;;4988090;28;20317;-44
2021/12/08 01:19:01;;;;;;;3.30;1.60;;;23.70;55.70;;;;;;4988293;28;20226;-47
2021/12/08 01:21:31;;;;;;;3.50;2.00;;;23.70;55.60;;;;;;4986781;28;20229;-44
2021/12/08 01:24:04;;;;;;;3.40;1.80;;;23.80;55.70;;;;;;4987653;28;20728;-45
2021/12/08 01:26:35;;;;;;;3.47;1.90;;;23.80;55.70;;;;;;4987015;28;20309;-44
2021/12/08 01:29:07;;;;;;;3.85;1.98;;;23.80;55.60;;;;;;4986875;28;20225;-46
2021/12/08 01:31:41;;;;;;;3.22;1.83;;;23.80;55.60;;;;;;4987112;28;20206;-44
2021/12/08 01:34:12;;;;;;;3.28;1.73;;;23.80;55.80;;;;;;4985942;28;20206;-47
2021/12/08 01:36:43;;;;;;;4.07;2.05;;;23.80;55.80;;;;;;4986947;28;20219;-44
2021/12/08 01:39:15;;;;;;;3.80;2.17;;;23.90;55.90;;;;;;4986582;28;20228;-44
2021/12/08 01:41:47;;;;;;;2.13;1.92;;;23.90;55.90;;;;;;4986273;28;20301;-44
2021/12/08 01:47:04;;;;;;;3.78;1.80;;;24.00;55.90;;;;;;4986891;28;20727;-44
2021/12/08 01:49:35;;;;;;;2.85;1.70;;;24.00;55.80;;;;;;4986011;28;20844;-44
2021/12/08 01:52:05;;;;;;;2.47;2.05;;;24.00;55.70;;;;;;4987358;28;20215;-45
2021/12/08 01:54:38;;;;;;;2.05;1.65;;;24.10;55.80;;;;;;4986928;28;20309;-44
2021/12/08 01:57:10;;;;;;;3.63;2.13;;;24.10;55.60;;;;;;4986282;28;20676;-46
2021/12/08 01:59:40;;;;;;;2.53;1.95;;;24.10;55.50;;;;;;4985377;28;20225;-45
2021/12/08 02:02:11;;;;;;;3.78;1.83;;;24.10;55.50;;;;;;4985779;28;20281;-44
2021/12/08 02:04:41;;;;;;;3.45;1.70;;;24.20;55.50;;;;;;4986266;28;20625;-45
2021/12/08 02:07:12;;;;;;;2.70;1.67;;;24.20;55.30;;;;;;4987344;28;20316;-55
2021/12/08 02:09:44;;;;;;;4.70;1.90;;;24.20;55.30;;;;;;4988193;28;20225;-44
2021/12/08 02:12:15;;;;;;;4.40;1.88;;;24.20;55.40;;;;;;4987112;28;20279;-44
2021/12/08 02:14:45;;;;;;;5.07;1.92;;;24.20;55.40;;;;;;4987238;28;20255;-49
2021/12/08 02:17:16;;;;;;;4.50;1.88;;;24.30;55.40;;;;;;4986755;28;20268;-44
2021/12/08 02:19:46;;;;;;;5.00;2.10;;;24.30;55.30;;;;;;4985862;28;20275;-43
2021/12/08 02:22:19;;;;;;;5.70;2.10;;;24.30;55.40;;;;;;4986905;28;20211;-46
2021/12/08 02:24:49;;;;;;;4.20;2.13;;;24.30;55.30;;;;;;4987503;28;20284;-46
2021/12/08 02:27:20;;;;;;;4.00;1.80;;;24.30;55.40;;;;;;4987442;28;20387;-53
2021/12/08 02:29:58;;;;;;;5.60;2.15;;;24.30;55.30;;;;;;4987811;28;20280;-51
2021/12/08 02:46:40;;;;;;;6.03;2.22;;;24.30;55.30;;;;;;4985587;28;20193;-45
2021/12/08 02:46:53;;;;;;;4.13;1.98;;;24.50;55.10;;;;;;4986993;28;20703;-49
2021/12/08 02:49:25;;;;;;;4.40;2.08;;;24.50;55.10;;;;;;4986494;28;20194;-57
2021/12/08 02:51:55;;;;;;;4.07;2.17;;;24.50;55.00;;;;;;4986268;28;20728;-45
2021/12/08 02:54:34;;;;;;;4.75;2.20;;;24.40;54.90;;;;;;4986820;28;20288;-52
2021/12/08 02:57:05;;;;;;;5.57;2.60;;;24.50;55.00;;;;;;4987341;28;20300;-47
2021/12/08 02:59:35;;;;;;;4.95;2.53;;;24.50;54.80;;;;;;4985550;28;20222;-44
2021/12/08 03:02:06;;;;;;;4.30;2.20;;;24.50;54.80;;;;;;4984378;28;20233;-51
2021/12/08 03:04:37;;;;;;;4.68;2.47;;;24.50;54.80;;;;;;4985385;28;20248;-44
2021/12/08 03:07:08;;;;;;;3.25;2.42;;;24.50;54.70;;;;;;4985979;28;20304;-45
2021/12/08 03:09:41;;;;;;;4.78;2.70;;;24.50;54.80;;;;;;4986937;28;20285;-47
2021/12/08 03:12:12;;;;;;;6.00;2.80;;;24.50;54.70;;;;;;4987693;28;20232;-44
2021/12/08 03:14:42;;;;;;;4.28;2.10;;;24.40;54.70;;;;;;4989337;28;20281;-52
2021/12/08 03:17:14;;;;;;;5.00;2.40;;;24.40;54.70;;;;;;4989308;28;20225;-53
2021/12/08 03:19:46;;;;;;;5.07;2.30;;;24.50;54.70;;;;;;4989935;28;20222;-42
2021/12/08 03:22:16;;;;;;;4.78;2.63;;;24.50;54.70;;;;;;4989732;28;20512;-42
2021/12/08 03:24:51;;;;;;;4.28;2.42;;;24.50;54.60;;;;;;4982572;28;20253;-46
2021/12/08 03:27:30;;;;;;;6.90;2.72;;;24.40;54.50;;;;;;4989110;28;20225;-52
2021/12/08 03:30:15;;;;;;;5.30;2.40;;;24.50;54.60;;;;;;4989636;28;20201;-42
2021/12/08 03:32:46;;;;;;;7.43;2.45;;;24.50;54.60;;;;;;4989597;28;20198;-42
2021/12/08 03:35:19;;;;;;;4.60;2.58;;;24.50;54.40;;;;;;4989640;28;20747;-47
2021/12/08 03:37:50;;;;;;;6.50;2.65;;;24.50;54.40;;;;;;4989121;28;20330;-42
2021/12/08 03:40:24;;;;;;;6.55;2.63;;;24.50;54.40;;;;;;4988561;28;20688;-45
2021/12/08 03:42:56;;;;;;;7.00;2.53;;;24.50;54.30;;;;;;4988812;28;20255;-42
2021/12/08 03:45:32;;;;;;;6.38;2.92;;;24.50;54.30;;;;;;4989763;28;20206;-49
2021/12/08 03:48:09;;;;;;;7.65;3.10;;;24.40;54.20;;;;;;4989703;28;20203;-47
2021/12/08 03:50:41;;;;;;;7.28;3.20;;;24.40;54.20;;;;;;4989510;28;20205;-47
2021/12/08 03:53:16;;;;;;;5.88;2.42;;;24.40;54.10;;;;;;4990680;28;20263;-45
2021/12/08 03:55:50;;;;;;;5.90;2.50;;;24.40;54.10;;;;;;4988921;28;20275;-45
2021/12/08 03:58:21;;;;;;;6.80;2.63;;;24.40;54.10;;;;;;4988571;28;20264;-46
2021/12/08 04:00:54;;;;;;;6.00;2.15;;;24.40;54.10;;;;;;4988609;28;20283;-43
2021/12/08 04:03:25;;;;;;;6.07;2.15;;;24.40;54.10;;;;;;4988178;28;20201;-43
2021/12/08 04:05:59;;;;;;;6.30;2.40;;;24.30;54.00;;;;;;4989211;28;20221;-54
2021/12/08 04:08:39;;;;;;;5.78;2.20;;;24.30;54.00;;;;;;4988345;28;20197;-43
2021/12/08 04:11:13;;;;;;;8.52;2.53;;;24.30;54.00;;;;;;4990279;28;20189;-45
2021/12/08 04:13:46;;;;;;;5.57;2.03;;;24.30;53.90;;;;;;4988769;28;20201;-44
2021/12/08 04:16:21;;;;;;;6.47;2.30;;;24.30;53.90;;;;;;4989036;28;20634;-42
2021/12/08 04:18:52;;;;;;;4.93;2.10;;;24.30;53.80;;;;;;4988313;28;20209;-42
2021/12/08 04:21:22;;;;;;;5.75;2.17;;;24.30;53.80;;;;;;4988170;28;20225;-43
2021/12/08 04:23:53;;;;;;;4.82;2.25;;;24.20;53.70;;;;;;4988678;28;20206;-43
2021/12/08 04:26:31;;;;;;;4.82;2.08;;;24.30;53.80;;;;;;4986808;28;20229;-43
2021/12/08 04:29:02;;;;;;;5.25;2.30;;;24.20;53.80;;;;;;4989215;28;20197;-43
2021/12/08 04:31:37;;;;;;;5.95;2.42;;;24.20;53.80;;;;;;4988034;28;20708;-44
2021/12/08 04:34:13;;;;;;;9.80;2.22;;;24.20;53.90;;;;;;4987494;28;20790;-43
2021/12/08 04:36:46;;;;;;;7.13;2.40;;;24.20;53.90;;;;;;4989110;28;20283;-44
2021/12/08 04:39:23;;;;;;;4.20;2.38;;;24.10;53.90;;;;;;4988209;28;20452;-43
2021/12/08 04:42:01;;;;;;;7.45;2.35;;;24.10;53.90;;;;;;4987061;28;20236;-45
2021/12/08 04:44:38;;;;;;;5.32;2.25;;;24.10;53.90;;;;;;4988844;28;20201;-42
2021/12/08 04:47:28;;;;;;;4.35;1.90;;;24.10;53.90;;;;;;4987765;28;20248;-43
2021/12/08 04:52:56;;;;;;;4.85;2.60;;;24.10;54.00;;;;;;4989333;28;20208;-44
2021/12/08 05:01:27;;;;;;;4.80;2.25;;;24.10;54.00;;;;;;4987581;28;20717;-43
2021/12/08 05:04:29;;;;;;;4.75;2.50;;;24.10;54.00;;;;;;4987718;28;20256;-46
2021/12/08 05:07:16;;;;;;;4.53;2.42;;;24.10;54.10;;;;;;4989403;28;20227;-43
2021/12/08 05:09:49;;;;;;;5.15;2.30;;;24.10;54.00;;;;;;4987567;28;20611;-45
2021/12/08 05:12:21;;;;;;;4.00;2.53;;;24.10;54.00;;;;;;4988117;28;20603;-45
2021/12/08 05:14:58;;;;;;;3.22;2.10;;;24.00;54.00;;;;;;4987148;28;20202;-46
2021/12/08 05:17:31;;;;;;;4.18;2.13;;;24.00;54.00;;;;;;4988420;28;20226;-44
2021/12/08 05:20:06;;;;;;;4.88;2.42;;;24.00;54.00;;;;;;4987465;28;20632;-43
2021/12/08 05:22:41;;;;;;;5.18;2.40;;;24.00;54.00;;;;;;4988438;28;20209;-43
2021/12/08 05:25:19;;;;;;;4.10;2.30;;;24.00;54.00;;;;;;4988317;28;20193;-45
2021/12/08 05:27:52;;;;;;;3.42;2.60;;;24.00;54.00;;;;;;4981978;28;20327;-43
2021/12/08 05:30:31;;;;;;;4.28;2.58;;;24.00;54.00;;;;;;4986526;28;20197;-43
2021/12/08 05:33:03;;;;;;;4.82;2.30;;;24.00;54.00;;;;;;4987738;28;20232;-43
2021/12/08 05:35:34;;;;;;;3.40;2.17;;;24.00;54.00;;;;;;4986950;28;20740;-43
2021/12/08 05:38:06;;;;;;;5.80;2.58;;;24.00;54.10;;;;;;4987691;28;20201;-43
2021/12/08 05:40:41;;;;;;;4.60;2.85;;;24.00;54.10;;;;;;4987627;28;20279;-43
2021/12/08 05:43:11;;;;;;;4.18;2.10;;;24.00;54.10;;;;;;4987920;28;20193;-44
2021/12/08 05:45:46;;;;;;;4.93;2.30;;;24.00;54.70;;;;;;4987917;28;20256;-44
2021/12/08 05:48:17;;;;;;;3.35;2.30;;;24.00;54.10;;;;;;4987506;28;20208;-43
2021/12/08 05:50:52;;;;;;;2.67;2.05;;;24.00;54.10;;;;;;4986058;28;20639;-44
2021/12/08 05:53:23;;;;;;;4.05;2.63;;;24.00;54.10;;;;;;4987054;28;20234;-47
2021/12/08 05:55:54;;;;;;;3.47;2.17;;;24.00;54.20;;;;;;4986284;28;20692;-44
2021/12/08 05:58:28;;;;;;;3.95;2.30;;;24.00;54.20;;;;;;4977470;28;20193;-45
2021/12/08 06:01:05;;;;;;;4.13;2.22;;;24.00;54.20;;;;;;4987325;28;20222;-43
2021/12/08 06:03:37;;;;;;;2.90;2.17;;;23.90;54.10;;;;;;4987853;28;20589;-43
2021/12/08 06:06:10;;;;;;;3.20;2.30;;;23.90;54.10;;;;;;4987374;28;20300;-44
2021/12/08 06:08:41;;;;;;;3.63;2.55;;;23.90;54.10;;;;;;4985841;28;20708;-43
2021/12/08 06:11:13;;;;;;;3.30;2.13;;;23.90;54.10;;;;;;4986152;28;20201;-42
2021/12/08 06:13:45;;;;;;;4.15;2.13;;;23.90;54.00;;;;;;4987513;28;20251;-44
2021/12/08 06:16:21;;;;;;;3.60;2.42;;;23.90;54.10;;;;;;4987525;28;20585;-45
2021/12/08 06:18:52;;;;;;;3.67;2.22;;;23.90;54.10;;;;;;4987298;28;20284;-43
2021/12/08 06:21:26;;;;;;;3.50;2.42;;;23.90;54.10;;;;;;4986701;28;20771;-46
2021/12/08 06:23:58;;;;;;;4.03;2.50;;;23.90;54.20;;;;;;4985639;28;20636;-44
2021/12/08 06:26:29;;;;;;;5.18;2.70;;;23.90;54.20;;;;;;4985937;28;20217;-44
2021/12/08 06:29:01;;;;;;;4.10;2.50;;;23.90;54.20;;;;;;4986429;28;20293;-43
2021/12/08 06:31:34;;;;;;;3.00;2.28;;;23.90;54.20;;;;;;4981431;28;20220;-45
2021/12/08 06:34:05;;;;;;;3.47;2.42;;;23.80;54.10;;;;;;4986519;28;20209;-45
2021/12/08 06:36:39;;;;;;;5.80;2.78;;;23.80;54.10;;;;;;4987226;28;20300;-43
2021/12/08 06:39:14;;;;;;;4.13;2.60;;;23.80;54.20;;;;;;4986291;28;20297;-48
2021/12/08 06:41:47;;;;;;;5.82;2.60;;;23.80;54.20;;;;;;4986361;28;20221;-44
2021/12/08 06:44:23;;;;;;;4.97;2.40;;;23.80;54.20;;;;;;4985844;28;20621;-44
2021/12/08 06:46:57;;;;;;;3.88;2.35;;;23.80;54.20;;;;;;4986084;28;20303;-44
2021/12/08 06:49:29;;;;;;;2.85;2.22;;;23.80;54.20;;;;;;4987343;28;20292;-44
2021/12/08 06:52:05;;;;;;;3.22;2.20;;;23.80;54.20;;;;;;4990658;28;20300;-45
2021/12/08 06:54:46;;;;;;;3.67;2.58;;;23.80;54.30;;;;;;4990261;28;20244;-44
2021/12/08 06:57:21;;;;;;;3.83;2.40;;;23.80;54.20;;;;;;4989590;28;20245;-44
2021/12/08 06:59:58;;;;;;;2.95;2.45;;;23.80;54.30;;;;;;4988984;28;20205;-46
2021/12/08 07:02:55;;;;;;;3.63;2.50;;;23.80;54.20;;;;;;4985070;28;20209;-45
2021/12/08 07:06:02;;;;;;;;;;;;;;;;;;;;;
2021/12/08 07:11:02;;;;;;;2.83;2.10;;;23.70;54.10;;;;;;5048159;23;20872;-47
2021/12/08 07:13:35;;;;;;;3.72;2.10;;;23.70;54.20;;;;;;4987966;28;20197;-46
2021/12/08 07:16:10;;;;;;;3.58;2.22;;;23.70;54.20;;;;;;4988717;28;20649;-44
2021/12/08 07:18:52;;;;;;;3.35;2.10;;;23.70;54.20;;;;;;4990220;28;20347;-44
2021/12/08 07:21:25;;;;;;;3.40;2.25;;;23.70;54.30;;;;;;4989142;28;20233;-44
2021/12/08 07:23:59;;;;;;;2.95;2.05;;;23.70;54.30;;;;;;4991151;28;20621;-43
2021/12/08 07:26:33;;;;;;;4.07;2.40;;;23.70;54.30;;;;;;4991180;28;20295;-43
2021/12/08 07:29:05;;;;;;;2.25;2.00;;;23.70;54.30;;;;;;4990369;28;20285;-42
2021/12/08 07:31:41;;;;;;;4.60;2.63;;;23.70;54.30;;;;;;4975618;28;20234;-44
2021/12/08 07:34:18;;;;;;;5.43;1.92;;;23.60;54.30;;;;;;4990927;28;20300;-43
2021/12/08 07:36:53;;;;;;;3.75;1.80;;;23.60;54.50;;;;;;4991131;28;20327;-49
2021/12/08 07:39:27;;;;;;;4.68;2.30;;;23.60;54.50;;;;;;4991126;28;20665;-48
2021/12/08 07:42:01;;;;;;;5.20;2.20;;;23.60;54.60;;;;;;4989867;28;20229;-44
2021/12/08 07:44:32;;;;;;;3.75;2.47;;;23.60;54.60;;;;;;4990952;28;20233;-47
2021/12/08 07:47:06;;;;;;;4.05;2.10;;;23.60;54.60;;;;;;4991183;28;20304;-46
2021/12/08 07:49:41;;;;;;;4.60;2.70;;;23.50;54.70;;;;;;4990759;28;20281;-45
2021/12/08 07:52:16;;;;;;;4.00;2.63;;;23.50;54.70;;;;;;4990466;28;20872;-43
2021/12/08 07:54:48;;;;;;;3.85;2.63;;;23.50;54.80;;;;;;4990880;28;20293;-45
2021/12/08 07:57:21;;;;;;;3.80;2.45;;;23.50;54.70;;;;;;4990265;28;20261;-43
2021/12/08 07:59:58;;;;;;;4.40;2.22;;;23.50;54.80;;;;;;4990932;28;20225;-43
2021/12/08 08:02:29;;;;;;;4.28;2.03;;;23.50;54.80;;;;;;4978976;28;20225;-46
2021/12/08 08:05:05;;;;;;;3.55;2.17;;;23.50;54.80;;;;;;4978464;28;20204;-43
2021/12/08 08:07:35;;;;;;;3.38;2.35;;;23.50;54.80;;;;;;5001480;23;20295;-46
2021/12/08 08:10:13;;;;;;;4.75;2.13;;;23.50;54.80;;;;;;4990338;28;20248;-44
2021/12/08 08:12:45;;;;;;;3.08;2.20;;;23.40;54.80;;;;;;4988502;28;20203;-45
2021/12/08 08:15:25;;;;;;;4.22;2.10;;;23.50;54.80;;;;;;4988762;28;20277;-45
2021/12/08 08:17:56;;;;;;;4.30;2.35;;;23.40;54.80;;;;;;4990937;28;20239;-49
2021/12/08 08:20:32;;;;;;;3.35;2.05;;;23.40;54.80;;;;;;4990399;28;20288;-43
2021/12/08 08:23:04;;;;;;;4.25;2.20;;;23.40;54.70;;;;;;4988846;28;20300;-47
2021/12/08 08:25:37;;;;;;;3.38;2.05;;;23.40;54.70;;;;;;4990185;28;20273;-47
2021/12/08 08:28:09;;;;;;;3.75;2.00;;;23.40;55.30;;;;;;4988803;28;20280;-45
2021/12/08 08:30:42;;;;;;;3.53;2.13;;;23.40;54.70;;;;;;4990681;28;20288;-46
2021/12/08 08:33:14;;;;;;;3.47;2.25;;;23.40;54.70;;;;;;4985994;28;20675;-43
2021/12/08 08:35:48;;;;;;;3.53;2.00;;;23.40;54.70;;;;;;4990477;28;20221;-43
2021/12/08 08:38:22;;;;;;;2.72;1.98;;;23.40;54.70;;;;;;4986667;28;20207;-42
2021/12/08 08:40:56;;;;;;;3.15;2.05;;;23.30;54.60;;;;;;4988753;28;20630;-45
2021/12/08 08:43:27;;;;;;;3.80;2.17;;;23.30;54.60;;;;;;4986434;28;20598;-43
2021/12/08 08:45:59;;;;;;;3.47;2.10;;;23.30;54.60;;;;;;4989352;28;20200;-43
2021/12/08 08:48:32;;;;;;;4.55;2.20;;;23.30;54.60;;;;;;4989707;28;20225;-43
2021/12/08 08:51:09;;;;;;;2.92;2.20;;;23.30;54.60;;;;;;4989780;28;20300;-43
2021/12/08 08:53:44;;;;;;;3.53;2.00;;;23.30;54.70;;;;;;4983816;28;20637;-44
2021/12/08 08:56:18;;;;;;;2.75;2.00;;;23.20;54.60;;;;;;4989386;28;20304;-49
2021/12/08 08:58:52;;;;;;;2.67;1.90;;;23.20;54.60;;;;;;4987895;28;20285;-45
2021/12/08 09:01:25;;;;;;;2.75;2.05;;;23.20;54.70;;;;;;4989457;28;20662;-44
2021/12/08 09:03:58;;;;;;;3.20;1.80;;;23.20;54.70;;;;;;4983594;28;20233;-43
2021/12/08 09:06:33;;;;;;;2.70;1.80;;;23.20;54.70;;;;;;4986518;28;20303;-43
2021/12/08 09:09:09;;;;;;;3.92;2.35;;;23.20;54.60;;;;;;4990124;28;20208;-46
2021/12/08 09:11:44;;;;;;;3.08;2.13;;;23.20;54.60;;;;;;4989392;28;20284;-43
2021/12/08 09:14:21;;;;;;;3.03;2.25;;;23.20;54.60;;;;;;4986731;28;20197;-47
2021/12/08 09:16:55;;;;;;;2.95;2.00;;;23.20;55.10;;;;;;4989412;28;20241;-43
2021/12/08 09:19:29;;;;;;;3.05;2.25;;;23.20;54.60;;;;;;4989411;28;20276;-45
2021/12/08 09:22:04;;;;;;;3.35;1.83;;;23.10;54.50;;;;;;4989709;28;20256;-45
2021/12/08 09:24:38;;;;;;;3.28;1.92;;;23.10;54.50;;;;;;4986048;28;20255;-43
2021/12/08 09:27:11;;;;;;;3.60;2.00;;;23.10;54.60;;;;;;4988377;28;20213;-44
2021/12/08 09:29:45;;;;;;;2.63;1.92;;;23.10;54.60;;;;;;4988718;28;20282;-45
2021/12/08 09:32:19;;;;;;;3.95;2.30;;;23.10;54.60;;;;;;4988560;28;20212;-44
2021/12/08 09:34:56;;;;;;;2.70;1.73;;;23.00;54.50;;;;;;4988197;28;20205;-49
2021/12/08 09:37:36;;;;;;;3.63;2.10;;;23.00;54.50;;;;;;4988766;28;20221;-43
2021/12/08 09:40:13;;;;;;;2.40;1.70;;;23.00;54.60;;;;;;4989274;28;20273;-45
2021/12/08 09:42:46;;;;;;;2.20;1.80;;;23.00;54.60;;;;;;4987775;28;20706;-45
2021/12/08 09:45:21;;;;;;;3.13;2.15;;;23.00;54.70;;;;;;4989198;28;20493;-47
2021/12/08 09:47:52;;;;;;;3.45;2.00;;;23.00;54.60;;;;;;4988961;28;20681;-45
2021/12/08 09:50:23;;;;;;;3.10;2.03;;;23.00;54.70;;;;;;4988233;28;20228;-47
2021/12/08 09:52:56;;;;;;;4.18;2.20;;;22.90;54.60;;;;;;4987469;28;20281;-43
2021/12/08 09:55:26;;;;;;;2.60;1.60;;;22.90;54.60;;;;;;4987767;28;20687;-44
2021/12/08 09:57:57;;;;;;;2.97;2.00;;;22.90;54.60;;;;;;4984926;28;20305;-46
2021/12/08 10:00:31;;;;;;;4.38;2.50;;;22.90;54.60;;;;;;4988266;28;20237;-45
2021/12/08 10:03:03;;;;;;;2.47;1.92;;;22.90;54.60;;;;;;4986957;28;20654;-43
2021/12/08 10:05:36;;;;;;;3.60;2.10;;;22.90;54.60;;;;;;4987168;28;20225;-43
2021/12/08 10:08:09;;;;;;;4.05;1.90;;;22.90;54.60;;;;;;4989348;28;20328;-43
2021/12/08 10:10:41;;;;;;;3.35;1.95;;;22.90;54.60;;;;;;4985970;28;20292;-45
2021/12/08 10:13:12;;;;;;;3.08;2.10;;;22.80;54.60;;;;;;4984636;28;20795;-49
2021/12/08 10:15:43;;;;;;;2.63;2.00;;;22.80;54.60;;;;;;4988748;28;20319;-43
2021/12/08 10:18:14;;;;;;;2.95;2.10;;;22.80;54.60;;;;;;4989028;28;20304;-43
2021/12/08 10:20:47;;;;;;;2.67;1.77;;;22.80;54.60;;;;;;4989040;28;20288;-45
2021/12/08 10:23:23;;;;;;;3.42;1.95;;;22.80;54.60;;;;;;4987603;28;20332;-43
2021/12/08 10:25:55;;;;;;;2.83;1.90;;;22.80;54.70;;;;;;4977842;28;20212;-44
2021/12/08 10:28:30;;;;;;;4.10;2.17;;;22.80;54.70;;;;;;4975854;28;20222;-47
2021/12/08 10:31:05;;;;;;;4.00;2.20;;;22.70;54.60;;;;;;4975184;28;20292;-43
2021/12/08 10:33:48;;;;;;;2.67;1.73;;;22.70;54.60;;;;;;4963391;28;20639;-43
2021/12/08 10:36:35;;;;;;;2.38;1.77;;;22.70;54.70;;;;;;4965034;28;20226;-43
2021/12/08 10:39:11;;;;;;;2.85;2.00;;;22.70;55.20;;;;;;4965189;28;20204;-43
2021/12/08 10:41:54;;;;;;;3.00;1.80;;;22.70;54.60;;;;;;4965087;28;20257;-44
2021/12/08 10:44:26;;;;;;;3.58;2.05;;;22.70;54.60;;;;;;4967457;28;20282;-44
2021/12/08 10:47:00;;;;;;;3.35;2.17;;;22.70;54.60;;;;;;4964441;28;20306;-49
2021/12/08 10:55:04;;;;;;;2.92;2.10;;;22.60;54.60;;;;;;4968233;28;20206;-46
2021/12/08 10:57:37;;;;;;;4.97;2.10;;;22.60;54.60;;;;;;4963255;28;20298;-43
2021/12/08 11:00:11;;;;;;;4.38;2.25;;;22.60;54.70;;;;;;4963369;28;20300;-43
2021/12/08 11:02:51;;;;;;;3.17;2.33;;;22.60;54.70;;;;;;4961946;28;20305;-43
2021/12/08 11:05:53;;;;;;;2.95;2.00;;;22.60;54.70;;;;;;4962222;28;20274;-43
2021/12/08 11:08:33;;;;;;;3.20;2.08;;;22.50;54.60;;;;;;4959374;28;20297;-43
2021/12/08 11:11:09;;;;;;;2.42;1.80;;;22.50;54.60;;;;;;4961651;28;20230;-43
2021/12/08 11:13:41;;;;;;;4.53;2.40;;;22.60;54.70;;;;;;4962515;28;20277;-49
2021/12/08 11:16:15;;;;;;;4.05;2.08;;;22.50;54.70;;;;;;4959118;28;20191;-45
2021/12/08 11:18:47;;;;;;;2.25;1.85;;;22.50;54.70;;;;;;4954838;28;20289;-45
2021/12/08 11:21:21;;;;;;;2.45;1.98;;;22.50;54.70;;;;;;4954816;28;20286;-44
2021/12/08 11:23:53;;;;;;;2.72;2.05;;;22.50;54.70;;;;;;4955505;28;20200;-45
2021/12/08 11:26:29;;;;;;;2.10;1.90;;;22.50;54.80;;;;;;4956154;28;20629;-43
2021/12/08 11:29:03;;;;;;;2.30;1.65;;;22.50;54.70;;;;;;4959490;28;20206;-44
2021/12/08 11:31:36;;;;;;;2.70;1.83;;;22.50;54.70;;;;;;4974129;28;20194;-44
2021/12/08 11:34:10;;;;;;;3.22;1.95;;;22.50;54.70;;;;;;4974023;28;20296;-45
2021/12/08 11:36:42;;;;;;;3.50;2.00;;;22.40;54.60;;;;;;4973570;28;20218;-48
2021/12/08 11:39:15;;;;;;;2.75;1.50;;;22.40;54.70;;;;;;4974004;28;20616;-50
2021/12/08 11:41:49;;;;;;;2.30;1.88;;;22.40;54.70;;;;;;4973914;28;20308;-44
2021/12/08 11:44:22;;;;;;;2.95;2.00;;;22.40;54.70;;;;;;4973581;28;20273;-44
2021/12/08 11:46:55;;;;;;;3.85;1.85;;;22.40;54.70;;;;;;4973548;28;20917;-46
2021/12/08 11:49:28;;;;;;;2.95;1.90;;;22.30;54.70;;;;;;4973361;28;20293;-43
2021/12/08 11:52:10;;;;;;;2.97;1.95;;;22.30;54.70;;;;;;4973574;28;20285;-44
2021/12/08 11:54:44;;;;;;;2.15;1.95;;;22.30;54.70;;;;;;4973565;28;20735;-44
2021/12/08 11:57:19;;;;;;;2.88;2.00;;;22.30;54.70;;;;;;4973862;28;20264;-49
2021/12/08 11:59:59;;;;;;;2.88;1.83;;;22.30;54.80;;;;;;4973215;28;20237;-50
2021/12/08 12:02:32;;;;;;;3.50;2.22;;;22.30;54.80;;;;;;4973411;28;20319;-46
2021/12/08 12:05:05;;;;;;;3.78;2.00;;;22.30;54.80;;;;;;4970488;28;20654;-43
2021/12/08 12:07:36;;;;;;;3.17;1.90;;;22.30;54.80;;;;;;4996786;23;20328;-44
2021/12/08 12:10:07;;;;;;;2.42;1.80;;;22.30;54.80;;;;;;4992626;28;20748;-45
2021/12/08 12:12:41;;;;;;;3.00;1.88;;;22.30;54.90;;;;;;4992511;28;20264;-45
2021/12/08 12:15:14;;;;;;;2.15;1.73;;;22.20;54.80;;;;;;4992343;28;20209;-44
2021/12/08 12:17:44;;;;;;;3.88;1.88;;;22.20;54.80;;;;;;4992271;28;20304;-46
2021/12/08 12:20:19;;;;;;;3.53;2.03;;;22.20;54.80;;;;;;4992234;28;20310;-43
2021/12/08 12:23:10;;;;;;;3.35;2.10;;;22.20;54.80;;;;;;4992332;28;20388;-44
2021/12/08 12:26:04;;;;;;;2.80;1.88;;;22.20;54.70;;;;;;4962064;28;20290;-47
2021/12/08 12:29:08;;;;;;;2.78;1.90;;;22.20;54.80;;;;;;4953889;28;20195;-43
2021/12/08 12:31:47;;;;;;;2.03;1.67;;;22.20;54.80;;;;;;4953645;28;20285;-44
2021/12/08 12:34:31;;;;;;;3.92;2.17;;;22.20;54.80;;;;;;4953511;28;20209;-45
2021/12/08 12:37:06;;;;;;;2.45;2.00;;;22.20;54.80;;;;;;4953611;28;20698;-46
2021/12/08 12:39:36;;;;;;;1.98;1.67;;;22.10;54.80;;;;;;4953621;28;20297;-49
2021/12/08 12:42:13;;;;;;;5.20;1.80;;;22.10;54.80;;;;;;4953676;28;20314;-44
2021/12/08 12:44:47;;;;;;;3.10;2.17;;;22.10;54.80;;;;;;4961449;28;20194;-44
2021/12/08 12:47:26;;;;;;;3.53;2.22;;;22.10;54.80;;;;;;4972204;28;20254;-46
2021/12/08 12:50:16;;;;;;;3.13;2.00;;;22.10;54.80;;;;;;4972909;28;20242;-46
2021/12/08 12:52:51;;;;;;;2.97;1.77;;;22.10;54.90;;;;;;4972820;28;20273;-46
2021/12/08 12:55:23;;;;;;;2.78;1.55;;;22.10;54.90;;;;;;4972745;28;20621;-44
2021/12/08 12:58:20;;;;;;;3.20;2.00;;;22.10;54.90;;;;;;4972356;28;20260;-45
2021/12/08 13:01:08;;;;;;;3.45;1.75;;;22.00;55.00;;;;;;4972035;28;20294;-44
2021/12/08 13:03:41;;;;;;;3.53;2.00;;;22.00;54.90;;;;;;4971953;28;20316;-44
2021/12/08 13:06:14;;;;;;;2.33;1.92;;;22.00;54.90;;;;;;4972536;28;20204;-46
2021/12/08 13:08:46;;;;;;;3.70;2.08;;;22.10;54.90;;;;;;4971282;28;20594;-43
2021/12/08 13:11:44;;;;;;;2.83;1.65;;;22.00;54.90;;;;;;4972061;28;20281;-45
2021/12/08 13:14:32;;;;;;;2.80;1.90;;;22.00;54.90;;;;;;4971758;28;20197;-45
2021/12/08 13:17:19;;;;;;;3.15;1.63;;;22.00;54.90;;;;;;4971272;28;20935;-46
2021/12/08 13:19:51;;;;;;;2.58;1.77;;;22.00;54.90;;;;;;4971560;28;20293;-46
2021/12/08 13:22:50;;;;;;;4.30;2.20;;;22.00;54.90;;;;;;4971667;28;20608;-44
2021/12/08 13:25:33;;;;;;;2.83;1.70;;;22.00;54.90;;;;;;4972068;28;20622;-44
2021/12/08 13:28:17;;;;;;;3.08;1.63;;;22.00;54.90;;;;;;4968398;28;20210;-46
2021/12/08 13:30:52;;;;;;;2.35;2.00;;;21.90;54.90;;;;;;4980262;28;20205;-44
2021/12/08 13:33:33;;;;;;;3.30;1.95;;;22.00;54.90;;;;;;4991300;28;20225;-46
2021/12/08 13:36:33;;;;;;;2.65;1.70;;;22.00;55.00;;;;;;4990469;28;20240;-45
2021/12/08 13:39:30;;;;;;;2.65;1.80;;;21.90;54.90;;;;;;4990407;28;20293;-44
2021/12/08 13:42:03;;;;;;;2.95;2.00;;;21.90;55.00;;;;;;4977689;28;20233;-44
2021/12/08 13:44:36;;;;;;;2.53;1.92;;;21.90;55.00;;;;;;4990532;28;20276;-48
2021/12/08 13:47:11;;;;;;;3.63;2.05;;;21.90;55.10;;;;;;4990399;28;20217;-47
2021/12/08 13:49:53;;;;;;;2.60;2.03;;;21.90;55.10;;;;;;4990220;28;20229;-44
2021/12/08 13:52:27;;;;;;;2.17;1.67;;;21.90;55.10;;;;;;4990890;28;20296;-48
2021/12/08 13:54:59;;;;;;;2.30;2.00;;;21.90;55.10;;;;;;4971908;28;20293;-45
2021/12/08 13:57:38;;;;;;;1.92;1.70;;;21.90;55.00;;;;;;4952036;28;20750;-45